Time;durP1;ratioP1;P1;durP2;ratioP2;P2;SDS_P1;SDS_P2;PMS_P1;PMS_P2;Temp;Humidity;BMP_temperature;BMP_pressure;BME280_temperature;BME280_humidity;BME280_pressure;Samples;Min_cycle;Max_cycle;Signal;HPM_P1;HPM_P2
2022/04/22 00:00:23;;;;;;;0.20;0.20;;;;;;;20.16;39.47;100465.44;5121735;28;20045;-30
2022/04/22 00:02:49;;;;;;;0.28;0.28;;;;;;;20.17;39.55;100458.00;5114281;28;20126;-30
2022/04/22 00:05:15;;;;;;;0.20;0.20;;;;;;;20.17;39.51;100463.53;5116673;28;20106;-29
2022/04/22 00:07:40;;;;;;;0.20;0.20;;;;;;;20.16;39.46;100454.38;5119879;28;20043;-30
2022/04/22 00:10:08;;;;;;;0.20;0.20;;;;;;;20.17;39.33;100458.81;5119262;28;20449;-30
2022/04/22 00:12:34;;;;;;;0.10;0.10;;;;;;;20.17;39.53;100458.00;5123275;28;20055;-30
2022/04/22 00:14:59;;;;;;;0.20;0.20;;;;;;;20.16;39.56;100454.38;5119298;28;20474;-30
2022/04/22 00:17:25;;;;;;;0.10;0.10;;;;;;;20.16;39.44;100462.69;5126190;28;20070;-29
2022/04/22 00:19:51;;;;;;;0.13;0.13;;;;;;;20.16;39.63;100454.38;5120519;28;20058;-30
2022/04/22 00:22:16;;;;;;;0.10;0.10;;;;;;;20.16;39.64;100450.81;5115579;28;20047;-30
2022/04/22 00:24:42;;;;;;;0.10;0.10;;;;;;;20.16;39.68;100450.81;5115154;28;20045;-30
2022/04/22 00:27:08;;;;;;;0.17;0.17;;;;;;;20.18;39.67;100454.09;5121248;28;20552;-31
2022/04/22 00:29:33;;;;;;;0.20;0.20;;;;;;;20.17;39.62;100450.53;5117146;28;20054;-31
2022/04/22 00:31:59;;;;;;;0.20;0.20;;;;;;;20.17;39.62;100450.53;5115287;28;20051;-31
2022/04/22 00:34:25;;;;;;;0.20;0.20;;;;;;;20.17;39.57;100447.75;5114748;28;20092;-31
2022/04/22 00:36:50;;;;;;;0.10;0.10;;;;;;;20.18;39.46;100445.81;5104679;28;20785;-30
2022/04/22 00:39:16;;;;;;;0.10;0.10;;;;;;;20.16;39.77;100445.28;5123135;28;20043;-29
2022/04/22 00:41:42;;;;;;;0.20;0.20;;;;;;;20.17;39.62;100439.47;5118098;28;20143;-29
2022/04/22 00:44:08;;;;;;;0.10;0.10;;;;;;;20.17;39.76;100441.41;5121067;28;20043;-29
2022/04/22 00:46:33;;;;;;;0.10;0.10;;;;;;;20.16;39.87;100443.31;5120295;28;20150;-34
2022/04/22 00:48:59;;;;;;;0.20;0.20;;;;;;;20.16;39.64;100443.31;5119982;28;20047;-30
2022/04/22 00:51:25;;;;;;;0.10;0.10;;;;;;;20.17;39.46;100450.53;5117651;28;20138;-29
2022/04/22 00:53:52;;;;;;;0.20;0.20;;;;;;;20.17;39.46;100444.16;5123752;28;20062;-30
2022/04/22 00:56:18;;;;;;;0.10;0.10;;;;;;;20.17;39.62;100446.94;5116733;28;20078;-30
2022/04/22 00:58:45;;;;;;;0.10;0.10;;;;;;;20.17;39.40;100441.41;5105234;28;20043;-30
2022/04/22 01:01:11;;;;;;;0.10;0.10;;;;;;;20.17;39.38;100441.41;5120564;28;20114;-29
2022/04/22 01:03:38;;;;;;;0.20;0.20;;;;;;;20.17;39.46;100435.88;5094299;28;20043;-30
2022/04/22 01:11:36;;;;;;;0.10;0.10;;;;;;;20.17;39.39;100428.41;5103900;28;20067;-29
2022/04/22 01:14:05;;;;;;;0.10;0.10;;;;;;;20.18;39.62;100420.94;5123552;28;20043;-29
2022/04/22 01:16:31;;;;;;;0.10;0.10;;;;;;;20.18;39.39;100418.16;5101000;28;20497;-30
2022/04/22 01:18:57;;;;;;;0.10;0.10;;;;;;;20.17;39.36;100425.63;5095036;28;20047;-30
2022/04/22 01:21:23;;;;;;;0.10;0.10;;;;;;;20.17;39.70;100424.81;5122034;27;20116;-31
2022/04/22 01:23:49;;;;;;;0.20;0.20;;;;;;;20.16;39.43;100414.84;5086498;28;20051;-31
2022/04/22 01:26:14;;;;;;;0.17;0.17;;;;;;;20.17;39.51;100419.28;5095244;28;20043;-30
2022/04/22 01:28:41;;;;;;;0.13;0.13;;;;;;;20.17;39.73;100414.56;5117882;28;20047;-30
2022/04/22 01:31:07;;;;;;;0.10;0.10;;;;;;;20.16;39.73;100410.16;5103925;28;20075;-30
2022/04/22 01:33:33;;;;;;;0.20;0.20;;;;;;;20.17;39.64;100399.94;5120650;28;20134;-29
2022/04/22 01:35:59;;;;;;;0.10;0.10;;;;;;;20.16;39.65;100404.63;5098905;28;20162;-31
2022/04/22 01:38:25;;;;;;;0.10;0.10;;;;;;;20.16;39.64;100401.84;5101459;28;20516;-30
2022/04/22 01:40:51;;;;;;;0.20;0.20;;;;;;;20.16;39.43;100404.63;5117120;28;20524;-30
2022/04/22 01:43:17;;;;;;;0.10;0.10;;;;;;;20.16;39.44;100399.09;5116532;28;20035;-29
2022/04/22 01:45:43;;;;;;;0.10;0.10;;;;;;;20.15;39.35;100391.91;5114955;28;20130;-30
2022/04/22 01:48:09;;;;;;;0.20;0.20;;;;;;;20.17;39.48;100402.69;5118236;28;20153;-30
2022/04/22 01:50:34;;;;;;;0.10;0.10;;;;;;;20.16;39.56;100393.56;5095158;28;20044;-29
2022/04/22 01:53:00;;;;;;;0.20;0.20;;;;;;;20.17;39.53;100391.66;5119288;28;20062;-29
2022/04/22 01:55:27;;;;;;;0.20;0.20;;;;;;;20.18;39.48;100396.03;5093656;28;20417;-30
2022/04/22 01:57:53;;;;;;;0.20;0.20;;;;;;;20.17;39.65;100398.00;5115718;28;20623;-31
2022/04/22 02:00:19;;;;;;;0.10;0.10;;;;;;;20.17;39.38;100398.00;5102293;28;20067;-29
2022/04/22 02:02:45;;;;;;;0.10;0.10;;;;;;;20.17;39.62;100397.16;5120409;28;20054;-31
2022/04/22 02:05:10;;;;;;;0.10;0.10;;;;;;;20.16;39.42;100399.09;5116189;28;20420;-31
2022/04/22 02:07:36;;;;;;;0.10;0.10;;;;;;;20.17;39.68;100402.69;5121833;28;20054;-30
2022/04/22 02:10:02;;;;;;;0.10;0.10;;;;;;;20.16;39.55;100407.38;5114985;28;20043;-32
2022/04/22 02:12:28;;;;;;;0.20;0.20;;;;;;;20.16;39.53;100401.84;5119011;28;20071;-31
2022/04/22 02:14:53;;;;;;;0.20;0.20;;;;;;;20.17;39.76;100398.00;5112259;28;20050;-30
2022/04/22 02:17:19;;;;;;;0.10;0.10;;;;;;;20.17;39.34;100388.88;5121984;28;20051;-30
2022/04/22 02:19:45;;;;;;;0.10;0.10;;;;;;;20.17;39.43;100394.41;5118018;28;20504;-29
2022/04/22 02:22:11;;;;;;;0.10;0.10;;;;;;;20.18;39.29;100391.31;5104408;28;20051;-30
2022/04/22 02:24:36;;;;;;;0.10;0.10;;;;;;;20.17;39.67;100392.47;5118797;28;20054;-33
2022/04/22 02:29:49;;;;;;;0.10;0.10;;;;;;;20.18;39.62;100387.75;5093126;28;20138;-29
2022/04/22 02:32:15;;;;;;;0.10;0.10;;;;;;;20.18;39.33;100384.97;5109231;28;20051;-31
2022/04/22 02:34:40;;;;;;;0.10;0.10;;;;;;;20.16;39.62;100390.78;5111500;28;20048;-30
2022/04/22 02:37:06;;;;;;;0.10;0.10;;;;;;;20.17;39.86;100383.34;5107798;28;20039;-29
2022/04/22 02:39:31;;;;;;;0.10;0.10;;;;;;;20.17;39.65;100386.94;5116156;28;20122;-30
2022/04/22 02:47:28;;;;;;;0.10;0.10;;;;;;;20.17;39.45;100384.16;5089926;28;20102;-30
2022/04/22 02:49:54;;;;;;;0.10;0.10;;;;;;;20.17;39.70;100383.34;5117434;28;20084;-29
2022/04/22 02:52:19;;;;;;;0.10;0.10;;;;;;;20.18;39.48;100379.44;5120784;28;20044;-29
2022/04/22 02:54:45;;;;;;;0.10;0.10;;;;;;;20.17;39.62;100378.63;5122858;28;20095;-31
2022/04/22 02:57:11;;;;;;;0.10;0.10;;;;;;;20.18;39.54;100373.94;5113880;28;20178;-31
2022/04/22 02:59:39;;;;;;;0.10;0.10;;;;;;;20.18;39.69;100371.16;5119068;28;20417;-32
2022/04/22 03:02:06;;;;;;;0.10;0.10;;;;;;;20.18;39.70;100371.16;5095879;28;20067;-29
2022/04/22 03:04:31;;;;;;;0.10;0.10;;;;;;;20.17;39.63;100370.34;5112037;28;20407;-30
2022/04/22 03:06:58;;;;;;;0.10;0.10;;;;;;;20.17;39.53;100375.88;5117438;28;20047;-29
2022/04/22 03:09:23;;;;;;;0.10;0.10;;;;;;;20.18;39.52;100374.75;5113382;28;20089;-30
2022/04/22 03:11:50;;;;;;;0.20;0.20;;;;;;;20.18;39.85;100371.97;5114844;28;20069;-30
2022/04/22 03:14:17;;;;;;;0.10;0.10;;;;;;;20.17;39.61;100377.81;5119023;28;20092;-31
2022/04/22 03:16:43;;;;;;;0.10;0.10;;;;;;;20.17;39.77;100375.06;5095280;28;20082;-31
2022/04/22 03:19:08;;;;;;;0.10;0.10;;;;;;;20.17;39.67;100366.75;5117845;28;20393;-29
2022/04/22 03:21:34;;;;;;;0.10;0.10;;;;;;;20.17;39.56;100361.22;5095218;28;20051;-29
2022/04/22 03:24:00;;;;;;;0.10;0.10;;;;;;;20.17;39.59;100366.75;5114426;28;20051;-29
2022/04/22 03:26:26;;;;;;;0.10;0.10;;;;;;;20.17;39.54;100366.75;5117934;28;20510;-32
2022/04/22 03:28:54;;;;;;;0.10;0.10;;;;;;;20.17;39.72;100369.53;5119081;28;20043;-30
2022/04/22 03:31:19;;;;;;;0.20;0.20;;;;;;;20.17;39.56;100369.53;5100034;28;20108;-31
2022/04/22 03:33:45;;;;;;;0.10;0.10;;;;;;;20.17;39.71;100362.03;5116516;28;20066;-30
2022/04/22 03:36:12;;;;;;;0.10;0.10;;;;;;;20.17;39.50;100359.28;5119264;28;20079;-30
2022/04/22 03:38:37;;;;;;;0.10;0.10;;;;;;;20.18;39.47;100354.56;5097879;28;20078;-30
2022/04/22 03:41:03;;;;;;;0.10;0.10;;;;;;;20.17;39.42;100355.69;5097326;28;20063;-30
2022/04/22 03:43:29;;;;;;;0.10;0.10;;;;;;;20.16;39.77;100357.63;5114471;28;20051;-30
2022/04/22 03:45:55;;;;;;;0.10;0.10;;;;;;;20.18;39.73;100360.09;5124817;27;20049;-31
2022/04/22 03:48:20;;;;;;;0.10;0.10;;;;;;;20.18;39.43;100362.88;5105422;28;20048;-30
2022/04/22 03:50:46;;;;;;;0.20;0.20;;;;;;;20.16;39.57;100357.63;5113503;28;20055;-32
2022/04/22 03:53:12;;;;;;;0.10;0.10;;;;;;;20.16;39.71;100354.03;5118083;28;20069;-30
2022/04/22 03:55:40;;;;;;;0.20;0.20;;;;;;;20.18;39.62;100357.34;5102063;28;20040;-29
2022/04/22 03:58:10;;;;;;;0.10;0.10;;;;;;;20.17;39.45;100351.00;5111132;28;20074;-29
2022/04/22 04:00:52;;;;;;;0.10;0.10;;;;;;;20.16;39.77;100352.09;5120912;28;20067;-30
2022/04/22 04:03:19;;;;;;;0.10;0.10;;;;;;;20.17;39.47;100345.47;5121875;28;20035;-30
2022/04/22 04:05:49;;;;;;;0.20;0.20;;;;;;;20.17;39.85;100351.00;5101989;28;20127;-30
2022/04/22 04:08:17;;;;;;;0.10;0.10;;;;;;;20.17;39.59;100345.47;5085006;28;20078;-30
2022/04/22 04:16:14;;;;;;;0.20;0.20;;;;;;;20.16;39.71;100343.78;5089035;28;20108;-30
2022/04/22 04:18:40;;;;;;;0.10;0.10;;;;;;;20.16;39.51;100342.97;5120723;28;20092;-31
2022/04/22 04:24:00;;;;;;;0.10;0.10;;;;;;;20.17;39.37;100339.94;5095517;28;20067;-29
2022/04/22 04:26:26;;;;;;;0.20;0.20;;;;;;;20.18;39.50;100337.97;5117784;28;20391;-31
2022/04/22 04:28:52;;;;;;;0.20;0.20;;;;;;;20.18;39.52;100346.28;5126000;28;20116;-30
2022/04/22 04:31:19;;;;;;;0.10;0.10;;;;;;;20.17;39.40;100334.41;5119778;28;20075;-30
2022/04/22 04:33:45;;;;;;;0.15;0.15;;;;;;;20.16;39.56;100332.72;5119053;28;20069;-32
2022/04/22 04:36:15;;;;;;;0.20;0.20;;;;;;;20.16;39.55;100331.91;5100006;28;20063;-30
2022/04/22 04:38:41;;;;;;;0.20;0.20;;;;;;;20.17;39.75;100337.16;5116062;28;20450;-30
2022/04/22 04:41:08;;;;;;;0.20;0.20;;;;;;;20.17;39.60;100337.16;5116795;28;20074;-30
2022/04/22 04:43:35;;;;;;;0.20;0.20;;;;;;;20.17;39.45;100334.41;5123044;28;20105;-30
2022/04/22 04:46:02;;;;;;;0.20;0.20;;;;;;;20.15;39.46;100333.88;5102480;28;20090;-35
2022/04/22 04:48:28;;;;;;;0.20;0.20;;;;;;;20.16;39.76;100332.72;5116241;28;20044;-29
2022/04/22 04:50:55;;;;;;;0.20;0.20;;;;;;;20.18;39.71;100337.97;5118180;28;20116;-31
2022/04/22 04:53:23;;;;;;;0.20;0.20;;;;;;;20.17;39.64;100333.59;5081764;28;20112;-31
2022/04/22 04:55:50;;;;;;;0.10;0.10;;;;;;;20.17;39.71;100331.63;5118598;28;20085;-30
2022/04/22 04:58:17;;;;;;;0.20;0.20;;;;;;;20.18;39.70;100332.44;5097496;28;20066;-29
2022/04/22 05:00:45;;;;;;;0.10;0.10;;;;;;;20.17;39.71;100333.59;5104674;28;20086;-31
2022/04/22 05:03:11;;;;;;;0.10;0.10;;;;;;;20.16;39.72;100334.69;5101340;28;20686;-31
2022/04/22 05:05:36;;;;;;;0.20;0.20;;;;;;;20.17;39.79;100337.16;5115259;28;20075;-29
2022/04/22 05:08:04;;;;;;;0.20;0.20;;;;;;;20.17;39.73;100328.88;5124815;28;20126;-30
2022/04/22 05:10:31;;;;;;;0.10;0.10;;;;;;;20.17;39.80;100330.81;5100191;28;20122;-30
2022/04/22 05:12:57;;;;;;;0.10;0.10;;;;;;;20.17;39.44;100328.88;5120753;28;20124;-30
2022/04/22 05:15:24;;;;;;;0.20;0.20;;;;;;;20.18;39.47;100335.22;5094731;28;20043;-31
2022/04/22 05:17:50;;;;;;;0.13;0.13;;;;;;;20.17;39.81;100330.81;5103203;28;20077;-31
2022/04/22 05:20:18;;;;;;;0.10;0.10;;;;;;;20.17;39.50;100330.81;5114109;28;20139;-29
2022/04/22 05:22:45;;;;;;;0.10;0.10;;;;;;;20.18;39.66;100330.50;5100805;28;20508;-30
2022/04/22 05:25:12;;;;;;;0.10;0.10;;;;;;;20.18;39.56;100329.69;5099232;28;20109;-30
2022/04/22 05:27:38;;;;;;;0.20;0.20;;;;;;;20.17;39.70;100328.88;5122081;28;20446;-31
2022/04/22 05:32:52;;;;;;;0.10;0.10;;;;;;;20.17;39.81;100330.81;5085714;28;20599;-31
2022/04/22 05:35:19;;;;;;;0.10;0.10;;;;;;;20.16;39.44;100329.97;5083145;28;20194;-31
2022/04/22 05:37:48;;;;;;;0.10;0.10;;;;;;;20.17;39.57;100320.59;5115446;28;20078;-30
2022/04/22 05:40:15;;;;;;;;;;;;;;;20.17;39.70;100328.06;5102797;28;20069;-29
2022/04/22 05:42:47;;;;;;;0.17;0.17;;;;;;;20.16;39.58;100331.91;5116097;28;19930;-29
2022/04/22 05:45:14;;;;;;;0.10;0.10;;;;;;;20.15;39.52;100322.00;5112427;28;20075;-30
2022/04/22 05:47:41;;;;;;;0.10;0.10;;;;;;;20.17;39.48;100322.53;5124290;28;20461;-29
2022/04/22 05:50:09;;;;;;;0.20;0.20;;;;;;;20.17;39.45;100322.53;5104165;28;20508;-31
2022/04/22 05:52:35;;;;;;;0.10;0.10;;;;;;;20.15;39.52;100320.03;5096700;28;20071;-29
2022/04/22 05:55:02;;;;;;;0.10;0.10;;;;;;;20.16;39.77;100318.91;5115849;28;20074;-29
2022/04/22 05:57:29;;;;;;;0.20;0.20;;;;;;;20.17;39.75;100315.06;5102936;28;20074;-29
2022/04/22 05:59:55;;;;;;;0.10;0.10;;;;;;;20.17;39.53;100320.59;5100334;28;20062;-31
2022/04/22 06:02:21;;;;;;;0.20;0.20;;;;;;;20.16;39.74;100318.09;5116838;28;20367;-29
2022/04/22 06:04:47;;;;;;;0.20;0.20;;;;;;;20.16;39.48;100320.88;5102895;28;20410;-30
2022/04/22 06:07:12;;;;;;;0.10;0.10;;;;;;;20.16;39.73;100309.81;5120250;28;20134;-29
2022/04/22 06:12:23;;;;;;;0.10;0.10;;;;;;;20.16;39.46;100315.34;5108852;28;20134;-31
2022/04/22 06:14:49;;;;;;;0.10;0.10;;;;;;;20.16;39.46;100307.84;5116100;28;20096;-29
2022/04/22 06:17:15;;;;;;;0.20;0.20;;;;;;;20.16;39.55;100313.38;5114449;28;20643;-30
2022/04/22 06:19:40;;;;;;;0.10;0.10;;;;;;;20.16;39.77;100310.63;5100760;28;20035;-30
2022/04/22 06:22:06;;;;;;;0.20;0.20;;;;;;;20.16;39.52;100305.09;5120312;28;20043;-31
2022/04/22 06:24:32;;;;;;;0.10;0.10;;;;;;;20.16;39.46;100309.81;5116106;28;20050;-30
2022/04/22 06:26:58;;;;;;;0.10;0.10;;;;;;;20.16;39.62;100307.84;5106237;28;20531;-29
2022/04/22 06:29:24;;;;;;;0.10;0.10;;;;;;;20.16;39.83;100304.28;5117507;28;20039;-30
2022/04/22 06:31:50;;;;;;;0.10;0.10;;;;;;;20.15;39.64;100303.47;5123998;28;20047;-30
2022/04/22 06:34:16;;;;;;;0.10;0.10;;;;;;;20.15;39.74;100303.47;5112763;28;20047;-29
2022/04/22 06:36:42;;;;;;;0.10;0.10;;;;;;;20.17;39.62;100303.19;5116127;28;20067;-30
2022/04/22 06:39:07;;;;;;;0.10;0.10;;;;;;;20.17;39.57;100300.41;5112073;28;20111;-30
2022/04/22 06:47:05;;;;;;;0.10;0.10;;;;;;;20.16;39.44;100293.22;5110694;28;20047;-30
2022/04/22 06:49:31;;;;;;;0.10;0.10;;;;;;;20.16;39.48;100287.69;5095005;28;20088;-29
2022/04/22 06:51:57;;;;;;;0.20;0.20;;;;;;;20.16;39.48;100291.25;5119293;28;20050;-30
2022/04/22 06:54:22;;;;;;;0.20;0.20;;;;;;;20.15;39.57;100292.41;5119995;28;20095;-31
2022/04/22 06:56:49;;;;;;;0.20;0.20;;;;;;;20.16;39.77;100293.22;5116132;28;20070;-30
2022/04/22 06:59:19;;;;;;;0.10;0.10;;;;;;;20.16;39.83;100288.50;5101482;28;20062;-30
2022/04/22 07:01:45;;;;;;;0.10;0.10;;;;;;;20.16;39.54;100290.44;5121297;28;20082;-30
2022/04/22 07:04:12;;;;;;;0.10;0.10;;;;;;;20.16;39.65;100296.78;5101415;28;20079;-30
2022/04/22 07:06:38;;;;;;;0.10;0.10;;;;;;;20.16;39.98;100293.22;5119348;28;20484;-30
2022/04/22 07:09:04;;;;;;;0.10;0.10;;;;;;;20.16;39.79;100290.44;5120185;28;20048;-31
2022/04/22 07:11:30;;;;;;;0.10;0.10;;;;;;;20.16;39.46;100290.44;5117630;28;20150;-30
2022/04/22 07:13:57;;;;;;;0.10;0.10;;;;;;;20.17;39.64;100289.34;5093319;28;20075;-30
2022/04/22 07:16:23;;;;;;;0.10;0.10;;;;;;;20.17;39.46;100297.66;5115977;28;20075;-30
2022/04/22 07:18:51;;;;;;;0.10;0.10;;;;;;;20.16;39.61;100291.25;5086642;28;20183;-31
2022/04/22 07:21:17;;;;;;;0.10;0.10;;;;;;;20.17;39.48;100298.47;5096612;28;20497;-29
2022/04/22 07:23:44;;;;;;;0.10;0.10;;;;;;;20.16;39.78;100293.22;5097594;28;20043;-29
2022/04/22 07:26:10;;;;;;;0.10;0.10;;;;;;;20.16;39.62;100282.97;5094225;28;20039;-30
2022/04/22 07:28:38;;;;;;;0.10;0.10;;;;;;;20.17;39.65;100281.06;5112267;28;20181;-29
2022/04/22 07:31:04;;;;;;;0.10;0.10;;;;;;;20.16;39.47;100284.91;5121096;27;20075;-31
2022/04/22 07:33:32;;;;;;;0.10;0.10;;;;;;;20.16;39.40;100284.91;5120418;28;20045;-30
2022/04/22 07:35:57;;;;;;;0.10;0.10;;;;;;;20.15;39.63;100275.81;5109898;28;20052;-30
2022/04/22 07:38:24;;;;;;;0.10;0.10;;;;;;;20.17;39.64;100283.81;5114817;28;20093;-30
2022/04/22 07:40:50;;;;;;;0.10;0.10;;;;;;;20.15;39.64;100280.53;5117572;28;20063;-30
2022/04/22 07:48:48;;;;;;;0.10;0.10;;;;;;;20.15;39.73;100273.03;5091947;28;20047;-30
2022/04/22 07:51:15;;;;;;;0.20;0.20;;;;;;;20.15;39.83;100275.81;5116541;28;20067;-29
2022/04/22 07:53:41;;;;;;;0.10;0.10;;;;;;;20.15;39.55;100284.09;5100841;28;20079;-31
2022/04/22 07:56:07;;;;;;;0.20;0.20;;;;;;;20.15;39.78;100284.09;5125114;28;20332;-31
2022/04/22 07:58:32;;;;;;;0.20;0.20;;;;;;;20.16;39.57;100287.69;5115127;28;20409;-30
2022/04/22 08:00:58;;;;;;;0.10;0.10;;;;;;;20.16;39.64;100277.44;5099163;28;20047;-30
2022/04/22 08:03:24;;;;;;;0.10;0.10;;;;;;;20.16;39.35;100277.44;5103924;28;20120;-32
2022/04/22 08:05:50;;;;;;;0.10;0.10;;;;;;;20.15;39.50;100286.88;5120523;28;20048;-30
2022/04/22 08:08:16;;;;;;;0.10;0.10;;;;;;;20.15;39.81;100286.88;5112682;28;20391;-31
2022/04/22 08:10:42;;;;;;;0.10;0.10;;;;;;;20.15;39.62;100278.56;5112304;28;20496;-29
2022/04/22 08:13:07;;;;;;;0.10;0.10;;;;;;;20.15;39.66;100277.75;5117023;28;20317;-30
2022/04/22 08:15:34;;;;;;;0.20;0.20;;;;;;;20.16;39.58;100279.41;5113026;28;20040;-30
2022/04/22 08:18:01;;;;;;;0.10;0.10;;;;;;;20.17;39.76;100275.53;5122156;28;20040;-30
2022/04/22 08:20:29;;;;;;;0.10;0.10;;;;;;;20.17;39.75;100278.28;5114605;28;20092;-30
2022/04/22 08:22:55;;;;;;;0.10;0.10;;;;;;;19.93;45.34;100273.69;5117551;28;20135;-31
2022/04/22 08:25:21;;;;;;;0.10;0.10;;;;;;;20.10;42.88;100291.69;5123160;28;20468;-30
2022/04/22 08:27:47;;;;;;;0.10;0.10;;;;;;;20.17;42.49;100281.06;5121619;28;20154;-31
2022/04/22 08:30:13;;;;;;;0.10;0.10;;;;;;;20.19;42.22;100281.56;5118702;28;20083;-29
2022/04/22 08:32:39;;;;;;;0.10;0.10;;;;;;;20.20;42.53;100272.13;5116502;28;20054;-30
2022/04/22 08:35:05;;;;;;;0.10;0.10;;;;;;;20.22;43.43;100272.66;5104873;28;20055;-29
2022/04/22 08:37:31;;;;;;;0.10;0.10;;;;;;;20.23;43.29;100274.31;5116061;28;20485;-31
2022/04/22 08:39:57;;;;;;;0.10;0.10;;;;;;;20.23;43.46;100272.34;5116356;28;20040;-29
2022/04/22 08:42:25;;;;;;;0.10;0.10;;;;;;;20.24;43.80;100253.81;5118865;28;20082;-30
2022/04/22 08:45:07;;;;;;;0.10;0.10;;;;;;;20.24;44.06;100262.09;5120659;28;20394;-29
2022/04/22 08:50:19;;;;;;;0.10;0.10;;;;;;;20.25;44.27;100258.22;5099336;28;20131;-29
2022/04/22 08:53:06;;;;;;;0.10;0.10;;;;;;;20.24;43.87;100257.41;5116901;28;20086;-31
2022/04/22 08:55:32;;;;;;;0.10;0.10;;;;;;;20.25;44.05;100245.25;5091525;28;20079;-30
2022/04/22 08:57:59;;;;;;;0.10;0.10;;;;;;;20.24;43.79;100257.41;5077354;28;20071;-30
2022/04/22 09:00:27;;;;;;;0.20;0.20;;;;;;;20.25;43.82;100249.91;5113895;28;20063;-31
2022/04/22 09:02:57;;;;;;;0.10;0.10;;;;;;;20.25;43.48;100252.69;5096513;27;20071;-30
2022/04/22 09:05:24;;;;;;;0.10;0.10;;;;;;;20.25;43.18;100249.91;5093176;28;20486;-29
2022/04/22 09:07:51;;;;;;;0.10;0.10;;;;;;;20.25;43.26;100245.25;5103127;28;20079;-29
2022/04/22 09:10:17;;;;;;;0.20;0.20;;;;;;;20.25;43.26;100249.91;5120386;28;20849;-29
2022/04/22 09:12:52;;;;;;;0.20;0.20;;;;;;;20.24;43.25;100249.09;5118436;28;20112;-31
2022/04/22 09:15:21;;;;;;;0.13;0.13;;;;;;;20.25;43.35;100247.16;5096245;28;20134;-30
2022/04/22 09:17:47;;;;;;;0.10;0.10;;;;;;;20.25;42.99;100239.72;5116383;28;20043;-30
2022/04/22 09:20:15;;;;;;;0.20;0.20;;;;;;;20.25;42.42;100236.94;5114739;28;20043;-30
2022/04/22 09:22:41;;;;;;;0.10;0.10;;;;;;;20.26;42.94;100246.06;5118778;28;20139;-30
2022/04/22 09:25:06;;;;;;;0.10;0.10;;;;;;;20.25;42.99;100242.47;5101574;28;20047;-29
2022/04/22 09:27:35;;;;;;;0.10;0.10;;;;;;;20.24;42.84;100237.22;5115226;27;20065;-30
2022/04/22 09:30:03;;;;;;;0.10;0.10;;;;;;;20.24;43.12;100232.50;5114724;28;20174;-30
2022/04/22 09:32:31;;;;;;;0.10;0.10;;;;;;;20.25;42.65;100231.41;5100382;28;20043;-29
2022/04/22 09:35:15;;;;;;;0.10;0.10;;;;;;;20.25;42.51;100233.31;5118882;28;20510;-32
2022/04/22 09:43:32;;;;;;;0.10;0.10;;;;;;;20.25;42.64;100225.88;5081139;28;20130;-29
2022/04/22 09:45:57;;;;;;;0.10;0.10;;;;;;;20.24;42.94;100218.69;5117640;28;20090;-31
2022/04/22 09:48:23;;;;;;;0.10;0.10;;;;;;;20.24;42.60;100213.16;5116243;28;20047;-30
2022/04/22 09:50:52;;;;;;;0.10;0.10;;;;;;;20.24;42.86;100210.41;5117649;28;20047;-30
2022/04/22 09:53:33;;;;;;;0.10;0.10;;;;;;;20.24;42.57;100202.09;5117387;28;20067;-32
2022/04/22 09:56:07;;;;;;;0.10;0.10;;;;;;;20.24;42.37;100207.63;5115961;28;20057;-32
2022/04/22 09:58:34;;;;;;;0.10;0.10;;;;;;;20.24;42.52;100196.56;5102379;28;20107;-29
2022/04/22 10:01:04;;;;;;;0.10;0.10;;;;;;;20.25;42.58;100201.00;5115832;28;20074;-32
2022/04/22 10:03:31;;;;;;;0.20;0.20;;;;;;;20.26;42.52;100196.28;5086087;28;20534;-30
2022/04/22 10:05:58;;;;;;;0.10;0.10;;;;;;;20.24;42.41;100188.28;5117411;28;20120;-31
2022/04/22 10:08:25;;;;;;;0.10;0.10;;;;;;;20.25;42.31;100194.63;5119307;28;20510;-30
2022/04/22 10:10:52;;;;;;;0.20;0.20;;;;;;;20.24;42.25;100191.03;5117513;28;20077;-30
2022/04/22 10:13:21;;;;;;;0.17;0.17;;;;;;;20.25;42.46;100184.41;5101251;28;20155;-31
2022/04/22 10:15:51;;;;;;;0.10;0.10;;;;;;;20.24;42.45;100182.75;5097168;28;20035;-30
2022/04/22 10:18:17;;;;;;;0.10;0.10;;;;;;;20.24;42.17;100177.22;5115359;28;20521;-29
2022/04/22 10:20:44;;;;;;;0.10;0.10;;;;;;;20.24;42.26;100174.44;5099793;28;20506;-30
2022/04/22 10:23:10;;;;;;;0.10;0.10;;;;;;;20.24;42.27;100179.97;5103804;28;20123;-30
2022/04/22 10:25:35;;;;;;;0.10;0.10;;;;;;;20.25;42.48;100176.13;5117579;28;20053;-32
2022/04/22 10:28:04;;;;;;;0.20;0.20;;;;;;;20.24;42.42;100184.69;5117801;28;20339;-30
2022/04/22 10:30:31;;;;;;;0.10;0.10;;;;;;;20.25;42.21;100178.03;5116058;28;20074;-31
2022/04/22 10:32:56;;;;;;;0.20;0.20;;;;;;;20.26;42.21;100182.47;5107322;28;20092;-30
2022/04/22 10:35:23;;;;;;;0.10;0.10;;;;;;;20.25;42.26;100175.25;5114963;28;20394;-30
2022/04/22 10:37:49;;;;;;;0.10;0.10;;;;;;;20.25;42.14;100169.75;5120478;28;20482;-30
2022/04/22 10:40:18;;;;;;;0.10;0.10;;;;;;;20.25;42.52;100169.75;5111064;28;20082;-29
2022/04/22 10:42:43;;;;;;;0.10;0.10;;;;;;;20.25;42.32;100166.97;5095947;28;20126;-34
2022/04/22 10:47:55;;;;;;;0.10;0.10;;;;;;;20.24;42.23;100163.41;5087070;28;20459;-31
2022/04/22 10:50:23;;;;;;;0.10;0.10;;;;;;;20.25;42.32;100162.28;5095170;28;20149;-30
2022/04/22 10:53:06;;;;;;;0.10;0.10;;;;;;;20.24;42.11;100159.81;5112130;28;20071;-32
2022/04/22 10:55:36;;;;;;;0.20;0.20;;;;;;;20.24;41.98;100165.34;5080079;28;20082;-31
2022/04/22 11:00:57;;;;;;;0.20;0.20;;;;;;;20.24;42.24;100151.50;5157104;27;20524;-24
2022/04/22 11:03:27;;;;;;;0.10;0.10;;;;;;;20.24;42.27;100154.28;5125283;27;20046;-24
2022/04/22 11:05:57;;;;;;;0.10;0.10;;;;;;;20.24;41.88;100157.03;5152947;27;20089;-24
2022/04/22 11:08:25;;;;;;;0.20;0.20;;;;;;;20.23;41.96;100145.16;5159246;27;20484;-26
2022/04/22 11:13:33;;;;;;;0.10;0.10;;;;;;;20.24;42.15;100143.22;5181508;27;20128;-23
2022/04/22 11:19:21;;;;;;;0.10;0.10;;;;;;;20.24;42.07;100140.47;5126926;27;20686;-28
2022/04/22 11:21:52;;;;;;;0.10;0.10;;;;;;;20.24;41.97;100138.50;5087247;28;20072;-28
2022/04/22 11:24:20;;;;;;;0.10;0.10;;;;;;;20.24;42.11;100126.63;5109977;28;20488;-29
2022/04/22 11:26:46;;;;;;;0.10;0.10;;;;;;;20.24;42.18;100123.88;5093774;28;20071;-29
2022/04/22 11:29:14;;;;;;;0.10;0.10;;;;;;;20.24;42.30;100121.09;5083933;28;20075;-29
2022/04/22 11:31:40;;;;;;;0.10;0.10;;;;;;;20.25;42.14;100114.44;5110539;28;20384;-29
2022/04/22 11:34:11;;;;;;;0.20;0.20;;;;;;;20.23;42.06;100112.00;5095013;28;20082;-28
2022/04/22 11:36:52;;;;;;;0.10;0.10;;;;;;;20.26;41.83;100116.91;5104614;28;20102;-30
2022/04/22 11:39:22;;;;;;;0.10;0.10;;;;;;;20.25;41.65;100114.44;5094792;28;20139;-28
2022/04/22 11:41:55;;;;;;;0.20;0.20;;;;;;;20.25;42.17;100112.53;5062835;28;20079;-29
2022/04/22 11:44:21;;;;;;;0.10;0.10;;;;;;;20.25;41.99;100115.28;5064731;28;20077;-28
2022/04/22 11:46:49;;;;;;;0.15;0.15;;;;;;;20.25;41.65;100118.06;5094979;28;20051;-29
2022/04/22 11:49:15;;;;;;;0.10;0.10;;;;;;;20.25;41.99;100117.19;5072066;28;20120;-27
2022/04/22 11:51:41;;;;;;;0.20;0.20;;;;;;;20.25;41.90;100108.91;5095126;28;20039;-32
2022/04/22 11:54:07;;;;;;;0.10;0.10;;;;;;;20.25;41.92;100108.91;5097604;28;20075;-30
2022/04/22 11:56:35;;;;;;;0.10;0.10;;;;;;;20.26;41.94;100105.03;5094547;28;20086;-30
2022/04/22 11:59:01;;;;;;;0.20;0.20;;;;;;;20.26;41.65;100096.75;5095184;28;21357;-31
2022/04/22 12:08:00;;;;;;;0.13;0.13;;;;;;;20.25;41.96;100101.47;5081096;28;20087;-30
2022/04/22 12:09:58;;;;;;;0.10;0.10;;;;;;;20.26;41.82;100096.75;5067041;28;20052;-29
2022/04/22 12:12:24;;;;;;;0.10;0.10;;;;;;;20.26;42.16;100091.22;5089734;28;20075;-30
2022/04/22 12:15:06;;;;;;;0.10;0.10;;;;;;;20.25;41.98;100082.09;5093682;28;20285;-29
2022/04/22 12:17:31;;;;;;;0.20;0.20;;;;;;;20.24;42.24;100080.44;5096048;28;20144;-31
2022/04/22 12:19:58;;;;;;;0.13;0.13;;;;;;;20.24;41.74;100085.97;5092389;28;20072;-29
2022/04/22 12:22:24;;;;;;;0.10;0.10;;;;;;;20.24;41.66;100082.41;5091425;28;20163;-29
2022/04/22 12:25:11;;;;;;;0.13;0.13;;;;;;;20.25;41.91;100072.97;5096563;28;20102;-31
2022/04/22 12:27:38;;;;;;;0.10;0.10;;;;;;;20.24;41.82;100077.69;5073641;28;20521;-30